Huvudsida
METAR-TAF:

METAR-TAF

Flygplatser :

Riga, Lettland

Rigas internationella flygplats

latitud: 56-55N, longitud: 023-58E, höjd: 10 m

Aktuellt väderrapport

Denna rapport gjordes för 17 minuter sedan, klockan 03:20 UTC
Vind 6 kt från ost
Temperatur -1°C
Fuktighet 100%
Tryck 998 hPa
Sikt: 9000 m
Mulet på en höjd av 4700 ft

METAR: EVRA 190320Z 08006KT 9000 OVC047 M01/M01 Q0998 R18/490295 NOSIG

Tid: 05:37 (03:37 UTC)

Väderprognos

Denna rapport gjordes för 1 timme och 31 minuter sedan, klockan 02:06 UTC
Prognos gäller från 19 kl. 03 UTC till 20 kl. 03 UTC
Vind 7 kt från ost
Sikt: 8000 m
Mulet på en höjd av 2000 ft
Blir
från 19 kl. 15 UTC till 19 kl. 17 UTC
Vind 5 kt från nord/nordost
Temporärt
från 19 kl. 17 UTC till 20 kl. 03 UTC
Sikt: 3000 m
Brutna moln på en höjd av 1000 ft
lätt snö

TAF: EVRA 190206Z 1903/2003 10007KT 8000 OVC020 BECMG 1915/1917 03005KT TEMPO 1917/2003 3000 -SN BKN010

Aktuella väderrapporter och prognoser från 4000 flygplatser (METAR- och TAF-rapporter).

De tillgängliga stationerna syns som gula och röda prickar på kartan.

För musen över prickarna för att se namnen på stationerna.

Klicka sedan för att få väderrapporter och prognoser.

För att ändra kartan: Klicka på de gröna knapparna med ett svart kors på för att zooma in; den gröna knappen med ett streck på för att zooma ut; eller på de gröna pilarna för angränsande kartor.


METAR-TAF: